createdAt,value
2023-03-06T00:01:07.914Z,100.00
2023-03-06T00:03:35.167Z,100.00
2023-03-06T00:06:02.474Z,100.00
2023-03-06T00:08:29.603Z,100.00
2023-03-06T00:10:57.335Z,100.00
2023-03-06T00:13:29.560Z,100.00
2023-03-06T00:16:00.484Z,100.00
2023-03-06T00:18:28.670Z,100.00
2023-03-06T00:20:55.752Z,100.00
2023-03-06T00:23:22.708Z,100.00
2023-03-06T00:25:50.909Z,100.00
2023-03-06T00:28:21.114Z,100.00
2023-03-06T00:30:48.021Z,100.00
2023-03-06T00:33:15.180Z,100.00
2023-03-06T00:35:42.190Z,100.00
2023-03-06T00:38:11.779Z,100.00
2023-03-06T00:40:38.949Z,100.00
2023-03-06T00:43:05.970Z,100.00
2023-03-06T00:45:33.005Z,100.00
2023-03-06T00:48:00.084Z,100.00
2023-03-06T00:50:27.078Z,100.00
2023-03-06T00:52:54.039Z,100.00
2023-03-06T00:55:21.096Z,100.00
2023-03-06T00:57:48.271Z,100.00
2023-03-06T01:00:15.554Z,100.00
2023-03-06T01:02:42.688Z,100.00
2023-03-06T01:05:13.513Z,100.00
2023-03-06T01:07:40.571Z,100.00
2023-03-06T01:10:08.407Z,100.00
2023-03-06T01:12:35.387Z,100.00
2023-03-06T01:15:04.022Z,100.00
2023-03-06T01:17:30.990Z,100.00
2023-03-06T01:19:58.017Z,100.00
2023-03-06T01:22:24.966Z,100.00
2023-03-06T01:24:53.240Z,100.00
2023-03-06T01:27:21.637Z,100.00
2023-03-06T01:29:48.640Z,100.00
2023-03-06T01:32:15.986Z,100.00
2023-03-06T01:34:42.935Z,100.00
2023-03-06T01:37:09.864Z,100.00
2023-03-06T01:39:36.942Z,100.00
2023-03-06T01:42:04.753Z,100.00
2023-03-06T01:44:31.815Z,100.00
2023-03-06T01:47:01.661Z,100.00
2023-03-06T01:49:36.177Z,100.00
2023-03-06T01:52:06.049Z,100.00
2023-03-06T01:55:05.076Z,100.00
2023-03-06T01:57:37.476Z,100.00
2023-03-06T02:00:18.326Z,100.00
2023-03-06T02:02:52.577Z,100.00
2023-03-06T02:05:21.394Z,100.00
2023-03-06T02:07:50.302Z,100.00
2023-03-06T02:10:19.271Z,100.00
2023-03-06T02:12:48.929Z,100.00
2023-03-06T02:15:20.794Z,100.00
2023-03-06T02:17:49.954Z,100.00
2023-03-06T02:20:30.727Z,100.00
2023-03-06T02:23:30.941Z,100.00
2023-03-06T02:25:59.029Z,100.00
2023-03-06T02:28:27.385Z,100.00
2023-03-06T02:30:55.743Z,100.00
2023-03-06T02:33:25.896Z,100.00
2023-03-06T02:35:57.066Z,100.00
2023-03-06T02:38:31.557Z,100.00
2023-03-06T02:41:01.122Z,100.00
2023-03-06T02:43:34.294Z,100.00
2023-03-06T02:46:02.438Z,100.00
2023-03-06T02:48:29.511Z,100.00
2023-03-06T02:50:56.464Z,100.00
2023-03-06T02:53:23.583Z,100.00
2023-03-06T02:55:50.701Z,100.00
2023-03-06T02:58:20.181Z,100.00
2023-03-06T03:00:49.468Z,100.00
2023-03-06T03:03:18.164Z,100.00
2023-03-06T03:05:45.160Z,100.00
2023-03-06T03:08:22.210Z,100.00
2023-03-06T03:10:51.326Z,100.00
2023-03-06T03:13:19.104Z,100.00
2023-03-06T03:16:07.421Z,100.00
2023-03-06T03:18:35.609Z,100.00
2023-03-06T03:21:08.137Z,100.00
2023-03-06T03:23:35.116Z,100.00
2023-03-06T03:26:11.276Z,100.00
2023-03-06T03:28:40.447Z,100.00
2023-03-06T03:31:10.132Z,100.00
2023-03-06T03:33:38.365Z,100.00
2023-03-06T03:36:07.308Z,100.00
2023-03-06T03:38:35.294Z,100.00
2023-03-06T03:41:04.251Z,100.00
2023-03-06T03:43:31.882Z,100.00
2023-03-06T03:45:59.045Z,100.00
2023-03-06T03:48:26.209Z,100.00
2023-03-06T03:50:53.241Z,100.00
2023-03-06T03:53:20.522Z,100.00
2023-03-06T03:55:48.740Z,100.00
2023-03-06T03:58:16.135Z,100.00
2023-03-06T04:00:43.197Z,100.00
2023-03-06T04:03:12.333Z,100.00
2023-03-06T04:05:42.468Z,100.00
2023-03-06T04:08:11.180Z,100.00
2023-03-06T04:10:41.223Z,100.00
2023-03-06T04:13:10.216Z,100.00
2023-03-06T04:15:41.894Z,100.00
2023-03-06T04:18:09.757Z,100.00
2023-03-06T04:20:36.770Z,100.00
2023-03-06T04:23:04.657Z,100.00
2023-03-06T04:25:32.088Z,100.00
2023-03-06T04:28:01.114Z,100.00
2023-03-06T04:30:29.008Z,100.00
2023-03-06T04:32:57.137Z,100.00
2023-03-06T04:35:24.177Z,100.00
2023-03-06T04:37:57.398Z,100.00
2023-03-06T04:40:29.260Z,100.00
2023-03-06T04:42:58.666Z,100.00
2023-03-06T04:45:27.785Z,100.00
2023-03-06T04:47:55.258Z,100.00
2023-03-06T04:50:24.500Z,100.00
2023-03-06T04:52:52.134Z,100.00
2023-03-06T04:55:19.300Z,100.00
2023-03-06T04:57:47.102Z,100.00
2023-03-06T05:00:20.929Z,100.00
2023-03-06T05:02:49.208Z,100.00
2023-03-06T05:05:17.082Z,100.00
2023-03-06T05:07:44.841Z,100.00
2023-03-06T05:10:18.973Z,100.00
2023-03-06T05:12:46.369Z,100.00
2023-03-06T05:15:15.048Z,100.00
2023-03-06T05:17:44.390Z,100.00
2023-03-06T05:20:17.225Z,100.00
2023-03-06T05:22:44.391Z,100.00
2023-03-06T05:25:11.471Z,100.00
2023-03-06T05:27:39.446Z,100.00
2023-03-06T05:30:10.049Z,100.00
2023-03-06T05:32:37.397Z,100.00
2023-03-06T05:35:05.740Z,100.00
2023-03-06T05:37:33.772Z,100.00
2023-03-06T05:40:06.007Z,100.00
2023-03-06T05:42:32.975Z,100.00
2023-03-06T05:45:02.277Z,100.00
2023-03-06T05:47:30.854Z,100.00
2023-03-06T05:49:58.569Z,100.00
2023-03-06T05:52:25.564Z,100.00
2023-03-06T05:54:53.991Z,100.00
2023-03-06T05:57:23.155Z,100.00
2023-03-06T05:59:50.767Z,100.00
2023-03-06T06:02:18.926Z,100.00
2023-03-06T06:04:46.446Z,100.00
2023-03-06T06:07:15.832Z,100.00
2023-03-06T06:09:47.939Z,100.00
2023-03-06T06:12:18.109Z,100.00
2023-03-06T06:14:45.161Z,100.00
2023-03-06T06:17:12.272Z,100.00
2023-03-06T06:19:39.257Z,100.00
2023-03-06T06:22:06.340Z,100.00
2023-03-06T06:24:33.562Z,100.00
2023-03-06T06:27:04.191Z,100.00
2023-03-06T06:29:33.352Z,100.00
2023-03-06T06:32:01.071Z,100.00
2023-03-06T06:34:30.026Z,100.00
2023-03-06T06:36:57.382Z,100.00
2023-03-06T06:39:24.506Z,100.00
2023-03-06T06:42:09.675Z,100.00
2023-03-06T06:44:41.206Z,100.00
2023-03-06T06:47:25.374Z,100.00
2023-03-06T06:49:56.786Z,100.00
2023-03-06T06:52:24.665Z,99.96
2023-03-06T06:54:52.452Z,99.82
2023-03-06T06:57:19.512Z,99.92
2023-03-06T06:59:46.555Z,99.91
2023-03-06T07:02:15.471Z,99.75
2023-03-06T07:05:00.435Z,99.26
2023-03-06T07:07:33.048Z,98.78
2023-03-06T07:10:00.204Z,98.19
2023-03-06T07:12:27.179Z,97.83
2023-03-06T07:14:54.218Z,97.46
2023-03-06T07:17:21.384Z,97.40
2023-03-06T07:19:48.442Z,97.12
2023-03-06T07:22:15.514Z,96.77
2023-03-06T07:24:42.620Z,95.96
2023-03-06T07:27:09.619Z,95.01
2023-03-06T07:29:36.583Z,94.25
2023-03-06T07:32:03.674Z,93.90
2023-03-06T07:34:30.608Z,93.74
2023-03-06T07:36:57.504Z,93.02
2023-03-06T07:39:24.555Z,92.34
2023-03-06T07:41:51.756Z,91.63
2023-03-06T07:44:18.949Z,90.57
2023-03-06T07:46:45.965Z,89.62
2023-03-06T07:49:12.972Z,88.53
2023-03-06T07:51:39.943Z,87.40
2023-03-06T07:54:07.141Z,86.23
2023-03-06T07:56:35.313Z,86.13
2023-03-06T07:59:03.224Z,85.32
2023-03-06T08:01:30.252Z,83.99
2023-03-06T08:03:57.304Z,82.55
2023-03-06T08:06:26.266Z,82.26
2023-03-06T08:08:55.847Z,81.73
2023-03-06T08:11:25.855Z,80.74
2023-03-06T08:13:53.975Z,80.25
2023-03-06T08:16:23.466Z,79.78
2023-03-06T08:18:50.719Z,79.53
2023-03-06T08:21:23.485Z,79.86
2023-03-06T08:23:51.122Z,79.15
2023-03-06T08:26:21.053Z,78.17
2023-03-06T08:28:48.236Z,76.51
2023-03-06T08:31:27.638Z,76.64
2023-03-06T08:33:56.541Z,75.67
2023-03-06T08:36:23.651Z,75.77
2023-03-06T08:38:51.081Z,75.33
2023-03-06T08:41:20.337Z,73.99
2023-03-06T08:43:48.538Z,73.89
2023-03-06T08:46:15.540Z,73.57
2023-03-06T08:48:42.600Z,73.67
2023-03-06T08:51:10.249Z,72.48
2023-03-06T08:53:43.276Z,72.63
2023-03-06T08:56:23.784Z,72.20
2023-03-06T08:58:53.046Z,70.98
2023-03-06T09:01:24.242Z,69.76
2023-03-06T09:03:54.611Z,69.47
2023-03-06T09:06:23.462Z,68.79
2023-03-06T09:08:51.992Z,67.29
2023-03-06T09:11:20.380Z,65.27
2023-03-06T09:13:47.409Z,64.43
2023-03-06T09:16:14.698Z,63.41
2023-03-06T09:18:41.777Z,63.21
2023-03-06T09:21:09.623Z,62.51
2023-03-06T09:23:39.036Z,60.97
2023-03-06T09:26:06.981Z,60.39
2023-03-06T09:28:39.279Z,59.00
2023-03-06T09:31:08.459Z,58.30
2023-03-06T09:33:35.686Z,58.19
2023-03-06T09:36:05.811Z,58.68
2023-03-06T09:38:32.985Z,58.77
2023-03-06T09:41:11.390Z,57.60
2023-03-06T09:43:46.090Z,56.04
2023-03-06T09:46:22.034Z,55.79
2023-03-06T09:49:24.941Z,56.92
2023-03-06T09:52:18.751Z,56.19
2023-03-06T09:54:55.171Z,55.39
2023-03-06T09:57:26.557Z,53.15
2023-03-06T09:59:56.371Z,53.20
2023-03-06T10:02:38.594Z,54.00
2023-03-06T10:05:12.876Z,54.59
2023-03-06T10:07:48.638Z,52.46
2023-03-06T10:10:25.476Z,52.82
2023-03-06T10:13:06.133Z,53.81
2023-03-06T10:15:38.959Z,53.59
2023-03-06T10:18:06.263Z,54.46
2023-03-06T10:20:40.694Z,54.73
2023-03-06T10:23:26.470Z,53.36
2023-03-06T10:26:06.688Z,53.73
2023-03-06T10:28:45.043Z,52.57
2023-03-06T10:31:23.283Z,51.81
2023-03-06T10:34:11.786Z,50.63
2023-03-06T10:36:38.737Z,49.18
2023-03-06T10:39:14.661Z,50.18
2023-03-06T10:41:41.565Z,50.18
2023-03-06T10:44:16.620Z,50.42
2023-03-06T10:46:47.331Z,48.74
2023-03-06T10:49:14.445Z,48.51
2023-03-06T10:54:42.574Z,49.31
2023-03-06T10:57:28.147Z,50.08
2023-03-06T11:00:00.781Z,50.66
2023-03-06T11:02:32.759Z,51.60
2023-03-06T11:05:00.975Z,50.97
2023-03-06T11:07:31.025Z,50.95
2023-03-06T11:10:03.160Z,50.17
2023-03-06T11:12:37.423Z,50.30
2023-03-06T11:15:13.933Z,50.99
2023-03-06T11:18:23.519Z,50.71
2023-03-06T11:20:54.021Z,46.67
2023-03-06T11:23:42.000Z,48.66
2023-03-06T11:26:15.164Z,47.98
2023-03-06T11:29:06.513Z,46.45
2023-03-06T11:31:39.211Z,48.64
2023-03-06T11:34:42.307Z,49.06
2023-03-06T11:38:23.209Z,49.32
2023-03-06T11:41:02.681Z,49.64
2023-03-06T11:44:14.331Z,49.08
2023-03-06T11:47:22.084Z,50.09
2023-03-06T11:50:27.389Z,48.78
2023-03-06T11:53:01.033Z,49.94
2023-03-06T11:55:43.538Z,47.88
2023-03-06T11:58:35.179Z,45.42
2023-03-06T12:01:05.696Z,47.93
2023-03-06T12:03:47.005Z,47.44
2023-03-06T12:06:22.459Z,47.46
2023-03-06T12:08:53.698Z,46.83
2023-03-06T12:11:38.745Z,46.86
2023-03-06T12:14:15.121Z,47.82
2023-03-06T12:17:03.636Z,48.71
2023-03-06T12:20:19.628Z,48.20
2023-03-06T12:23:15.266Z,50.89
2023-03-06T12:26:01.958Z,51.92
2023-03-06T12:28:35.403Z,51.73
2023-03-06T12:31:25.184Z,51.72
2023-03-06T12:34:18.288Z,52.07
2023-03-06T12:36:53.268Z,52.36
2023-03-06T12:40:06.006Z,52.22
2023-03-06T12:43:01.510Z,51.07
2023-03-06T12:45:37.078Z,50.34
2023-03-06T12:48:23.624Z,51.06
2023-03-06T12:50:52.637Z,51.61
2023-03-06T12:53:30.209Z,51.48
2023-03-06T12:56:01.006Z,51.01
2023-03-06T12:58:31.806Z,50.74
2023-03-06T13:01:24.210Z,50.08
2023-03-06T13:04:13.214Z,50.85
2023-03-06T13:07:10.016Z,51.56
2023-03-06T13:10:08.192Z,51.45
2023-03-06T13:13:07.047Z,51.28
2023-03-06T13:19:33.641Z,51.30
2023-03-06T13:25:41.671Z,51.62
2023-03-06T13:31:34.612Z,49.57
2023-03-06T13:34:57.086Z,49.67
2023-03-06T13:38:11.828Z,49.69
2023-03-06T13:41:43.943Z,49.83
2023-03-06T13:44:25.635Z,49.26
2023-03-06T13:47:12.420Z,48.95
2023-03-06T13:49:52.256Z,49.71
2023-03-06T13:52:55.829Z,49.71
2023-03-06T13:55:42.493Z,49.86
2023-03-06T13:58:53.663Z,48.97
2023-03-06T14:01:54.620Z,49.25
2023-03-06T14:04:42.407Z,49.63
2023-03-06T14:07:36.991Z,50.13
2023-03-06T14:13:58.328Z,50.77
2023-03-06T14:16:43.809Z,51.28
2023-03-06T14:19:22.131Z,52.20
2023-03-06T14:21:57.791Z,52.72
2023-03-06T14:25:11.166Z,53.03
2023-03-06T14:28:12.377Z,53.62
2023-03-06T14:31:07.607Z,52.77
2023-03-06T14:34:24.989Z,53.33
2023-03-06T14:37:11.729Z,53.55
2023-03-06T14:39:58.666Z,53.87
2023-03-06T14:42:49.437Z,54.28
2023-03-06T14:48:19.239Z,54.90
2023-03-06T14:51:17.580Z,54.97
2023-03-06T14:54:03.609Z,54.18
2023-03-06T14:57:03.833Z,55.27
2023-03-06T14:59:52.397Z,55.81
2023-03-06T15:02:32.957Z,55.93
2023-03-06T15:05:21.122Z,55.74
2023-03-06T15:07:49.984Z,56.70
2023-03-06T15:10:28.169Z,57.37
2023-03-06T15:12:55.857Z,58.32
2023-03-06T15:15:30.322Z,58.87
2023-03-06T15:18:00.476Z,59.40
2023-03-06T15:20:51.494Z,60.01
2023-03-06T15:23:20.634Z,60.82
2023-03-06T15:25:58.775Z,61.04
2023-03-06T15:28:36.505Z,63.06
2023-03-06T15:31:09.969Z,65.96
2023-03-06T15:33:39.620Z,70.20
2023-03-06T15:36:19.699Z,71.42
2023-03-06T15:38:47.775Z,73.50
2023-03-06T15:41:38.223Z,74.61
2023-03-06T15:44:12.260Z,74.72
2023-03-06T15:46:41.342Z,75.01
2023-03-06T15:49:16.099Z,76.19
2023-03-06T15:51:43.931Z,78.08
2023-03-06T15:54:13.994Z,79.49
2023-03-06T15:56:47.043Z,80.34
2023-03-06T15:59:32.580Z,80.73
2023-03-06T16:02:03.632Z,80.36
2023-03-06T16:04:32.757Z,80.18
2023-03-06T16:07:01.104Z,79.99
2023-03-06T16:09:28.193Z,79.85
2023-03-06T16:11:55.704Z,79.69
2023-03-06T16:14:24.281Z,79.67
2023-03-06T16:16:56.134Z,79.67
2023-03-06T16:19:27.412Z,79.71
2023-03-06T16:21:56.137Z,79.68
2023-03-06T16:24:26.594Z,79.93
2023-03-06T16:26:54.841Z,80.10
2023-03-06T16:29:29.796Z,80.30
2023-03-06T16:32:01.090Z,80.51
2023-03-06T16:35:44.416Z,80.92
2023-03-06T17:00:07.167Z,81.34
2023-03-06T17:02:46.357Z,81.23
2023-03-06T17:05:21.282Z,81.40
2023-03-06T17:07:53.980Z,81.55
2023-03-06T17:10:27.709Z,81.85
2023-03-06T17:13:27.761Z,81.77
2023-03-06T17:16:01.154Z,81.98
2023-03-06T17:18:34.983Z,82.47
2023-03-06T17:21:09.309Z,82.75
2023-03-06T17:23:38.872Z,83.22
2023-03-06T17:26:12.918Z,83.44
2023-03-06T17:28:42.371Z,83.54
2023-03-06T17:31:34.890Z,83.81
2023-03-06T17:34:03.732Z,84.10
2023-03-06T17:36:33.372Z,84.45
2023-03-06T17:39:03.645Z,84.38
2023-03-06T17:41:34.361Z,84.78
2023-03-06T17:44:03.066Z,84.90
2023-03-06T17:46:32.408Z,85.16
2023-03-06T17:49:01.331Z,85.28
2023-03-06T17:51:29.759Z,85.48
2023-03-06T17:53:58.262Z,85.86
2023-03-06T17:56:26.966Z,85.99
2023-03-06T17:58:57.017Z,86.29
2023-03-06T18:01:30.345Z,86.61
2023-03-06T18:03:59.503Z,86.98
2023-03-06T18:06:30.536Z,86.99
2023-03-06T18:08:59.552Z,87.46
2023-03-06T18:11:28.494Z,87.82
2023-03-06T18:13:57.011Z,87.86
2023-03-06T18:16:26.676Z,87.75
2023-03-06T18:18:56.928Z,87.84
2023-03-06T18:21:27.574Z,88.20
2023-03-06T18:24:00.104Z,88.24
2023-03-06T18:26:32.299Z,88.31
2023-03-06T18:29:04.799Z,88.31
2023-03-06T18:31:42.452Z,88.20
2023-03-06T18:34:14.945Z,88.23
2023-03-06T18:36:47.333Z,88.01
2023-03-06T18:39:16.530Z,87.76
2023-03-06T18:41:48.105Z,87.49
2023-03-06T18:44:17.716Z,87.27
2023-03-06T18:46:48.981Z,87.14
2023-03-06T18:49:18.160Z,86.80
2023-03-06T18:51:48.541Z,86.64
2023-03-06T18:54:18.506Z,86.39
2023-03-06T18:56:47.056Z,86.26
2023-03-06T18:59:18.779Z,86.30
2023-03-06T19:01:57.650Z,86.30
2023-03-06T19:04:29.304Z,86.60
2023-03-06T19:07:00.911Z,86.69
2023-03-06T19:09:29.312Z,86.62
2023-03-06T19:11:59.478Z,86.45
2023-03-06T19:14:28.823Z,86.50
2023-03-06T19:16:57.364Z,86.72
2023-03-06T19:19:26.502Z,86.65
2023-03-06T19:21:58.426Z,86.76
2023-03-06T19:24:27.184Z,86.84
2023-03-06T19:26:55.502Z,86.96
2023-03-06T19:29:23.905Z,87.07
2023-03-06T19:31:58.943Z,87.32
2023-03-06T19:34:27.357Z,87.53
2023-03-06T19:37:00.904Z,87.63
2023-03-06T19:39:29.332Z,87.76
2023-03-06T19:42:00.605Z,87.93
2023-03-06T19:44:28.963Z,88.15
2023-03-06T19:46:59.919Z,88.36
2023-03-06T19:49:30.516Z,88.46
2023-03-06T19:52:00.051Z,88.50
2023-03-06T19:54:28.484Z,88.82
2023-03-06T19:57:00.164Z,88.77
2023-03-06T19:59:28.753Z,88.97
2023-03-06T20:01:57.291Z,89.21
2023-03-06T20:04:26.470Z,89.30
2023-03-06T20:06:56.477Z,89.45
2023-03-06T20:09:25.060Z,89.58
2023-03-06T20:11:53.620Z,89.71
2023-03-06T20:14:22.011Z,90.01
2023-03-06T20:16:50.453Z,89.87
2023-03-06T20:19:19.225Z,89.91
2023-03-06T20:21:48.463Z,90.03
2023-03-06T20:24:19.562Z,89.91
2023-03-06T20:26:52.448Z,89.80
2023-03-06T20:29:30.794Z,89.53
2023-03-06T20:31:59.510Z,89.38
2023-03-06T20:34:28.148Z,89.08
2023-03-06T20:36:57.965Z,88.74
2023-03-06T20:39:32.023Z,88.35
2023-03-06T20:42:00.654Z,87.86
2023-03-06T20:44:29.638Z,87.44
2023-03-06T20:47:00.656Z,87.23
2023-03-06T20:49:39.674Z,86.81
2023-03-06T20:52:08.115Z,86.58
2023-03-06T20:54:36.606Z,86.21
2023-03-06T20:57:14.788Z,86.07
2023-03-06T20:59:45.176Z,85.72
2023-03-06T21:02:19.073Z,85.56
2023-03-06T21:04:48.140Z,85.25
2023-03-06T21:07:18.456Z,85.19
2023-03-06T21:09:52.568Z,84.97
2023-03-06T21:12:20.972Z,84.68
2023-03-06T21:14:49.355Z,84.55
2023-03-06T21:17:18.133Z,84.25
2023-03-06T21:19:46.506Z,84.27
2023-03-06T21:22:20.040Z,84.02
2023-03-06T21:24:48.632Z,84.06
2023-03-06T21:27:16.993Z,83.97
2023-03-06T21:29:47.936Z,83.87
2023-03-06T21:32:16.451Z,83.93
2023-03-06T21:34:49.334Z,84.12
2023-03-06T21:37:17.726Z,84.06
2023-03-06T21:39:46.237Z,84.06
2023-03-06T21:42:14.774Z,84.19
2023-03-06T21:44:45.764Z,84.07
2023-03-06T21:47:14.168Z,84.14
2023-03-06T21:49:42.478Z,84.41
2023-03-06T21:52:11.119Z,84.36
2023-03-06T21:54:39.447Z,84.36
2023-03-06T21:57:07.949Z,84.32
2023-03-06T21:59:37.959Z,84.29
2023-03-06T22:02:11.257Z,84.31
2023-03-06T22:04:40.063Z,84.22
2023-03-06T22:07:08.422Z,84.42
2023-03-06T22:09:37.569Z,84.58
2023-03-06T22:12:06.373Z,84.68
2023-03-06T22:14:34.812Z,84.84
2023-03-06T22:17:03.303Z,84.82
2023-03-06T22:19:31.717Z,85.02
2023-03-06T22:22:00.045Z,85.27
2023-03-06T22:24:30.654Z,85.33
2023-03-06T22:27:03.517Z,85.58
2023-03-06T22:29:42.235Z,85.78
2023-03-06T22:32:10.825Z,85.89
2023-03-06T22:34:39.420Z,86.05
2023-03-06T22:37:11.223Z,86.28
2023-03-06T22:39:39.535Z,86.26
2023-03-06T22:42:07.838Z,86.51
2023-03-06T22:44:36.210Z,86.93
2023-03-06T22:47:08.657Z,87.68
2023-03-06T22:49:37.986Z,87.97
2023-03-06T22:52:08.339Z,88.12
2023-03-06T22:54:36.659Z,88.11
2023-03-06T22:57:07.472Z,88.25
2023-03-06T22:59:35.982Z,88.46
2023-03-06T23:02:04.649Z,88.59
2023-03-06T23:04:33.031Z,88.88
2023-03-06T23:07:01.500Z,88.78
2023-03-06T23:09:33.400Z,89.10
2023-03-06T23:12:22.492Z,89.09
2023-03-06T23:15:39.169Z,89.17
2023-03-06T23:18:29.375Z,89.32
2023-03-06T23:21:19.153Z,89.56
2023-03-06T23:24:07.012Z,89.73
2023-03-06T23:26:35.494Z,89.92
2023-03-06T23:29:07.784Z,90.16
2023-03-06T23:31:44.572Z,90.13
2023-03-06T23:34:13.584Z,90.27
2023-03-06T23:36:41.954Z,90.64
2023-03-06T23:39:12.305Z,90.94
2023-03-06T23:41:44.465Z,90.99
2023-03-06T23:44:13.968Z,91.05
2023-03-06T23:46:45.431Z,91.26
2023-03-06T23:49:13.784Z,91.46
2023-03-06T23:51:42.303Z,91.59
2023-03-06T23:54:11.124Z,91.71
2023-03-06T23:56:39.767Z,92.00
2023-03-06T23:59:10.251Z,92.23
